TimeCDT,TemperatureF,Dew PointF,Humidity,Sea Level PressureIn,VisibilityMPH,Wind Direction,Wind SpeedMPH,Gust SpeedMPH,PrecipitationIn,Events,Conditions,WindDirDegrees,DateUTC
12:53 AM,75.9,73.0,91,29.96,10.0,SSE,8.1,-,N/A,,Overcast,150,2013-05-20 05:53:00
1:53 AM,75.9,73.0,91,29.95,10.0,SE,10.4,-,N/A,,Overcast,140,2013-05-20 06:53:00
2:46 AM,75.2,71.6,89,29.95,9.0,SSE,13.8,19.6,N/A,,Overcast,160,2013-05-20 07:46:00
2:53 AM,75.9,72.0,87,29.94,9.0,SSE,11.5,-,N/A,,Overcast,160,2013-05-20 07:53:00
3:49 AM,75.2,71.6,89,29.95,10.0,SSE,10.4,19.6,N/A,,Mostly Cloudy,160,2013-05-20 08:49:00
3:53 AM,75.9,72.0,87,29.95,10.0,SSE,12.7,19.6,N/A,,Mostly Cloudy,160,2013-05-20 08:53:00
4:48 AM,75.2,71.6,89,29.96,10.0,SE,8.1,-,N/A,,Overcast,130,2013-05-20 09:48:00
4:53 AM,75.9,72.0,87,29.96,10.0,SE,9.2,-,N/A,,Overcast,130,2013-05-20 09:53:00
5:53 AM,75.2,71.6,89,29.97,10.0,ESE,6.9,-,N/A,,Mostly Cloudy,110,2013-05-20 10:53:00
6:53 AM,75.9,73.0,91,29.99,8.0,ESE,6.9,-,N/A,,Overcast,120,2013-05-20 11:53:00
7:53 AM,77.0,73.0,88,29.99,10.0,SSE,10.4,-,N/A,,Overcast,150,2013-05-20 12:53:00
8:53 AM,79.0,72.0,79,30.00,10.0,South,12.7,-,N/A,,Mostly Cloudy,170,2013-05-20 13:53:00
9:19 AM,80.6,71.6,74,30.00,10.0,SSE,15.0,19.6,N/A,,Mostly Cloudy,150,2013-05-20 14:19:00
9:53 AM,82.0,71.1,69,29.99,10.0,South,11.5,-,N/A,,Mostly Cloudy,180,2013-05-20 14:53:00
10:53 AM,84.0,70.0,63,29.99,10.0,South,16.1,21.9,N/A,,Mostly Cloudy,170,2013-05-20 15:53:00
11:53 AM,87.1,71.1,59,29.99,10.0,SSE,17.3,24.2,N/A,,Scattered Clouds,160,2013-05-20 16:53:00
12:53 PM,89.1,71.1,55,29.97,10.0,South,15.0,20.7,N/A,,Scattered Clouds,180,2013-05-20 17:53:00
1:53 PM,88.0,70.0,55,29.96,10.0,South,15.0,20.7,N/A,,Partly Cloudy,170,2013-05-20 18:53:00
2:53 PM,90.0,69.1,50,29.94,10.0,South,12.7,-,N/A,,Mostly Cloudy,190,2013-05-20 19:53:00
3:53 PM,89.1,69.1,52,29.93,10.0,South,13.8,-,N/A,,Scattered Clouds,180,2013-05-20 20:53:00
4:53 PM,89.1,71.1,55,29.91,10.0,South,12.7,-,N/A,,Partly Cloudy,170,2013-05-20 21:53:00
5:53 PM,87.1,70.0,57,29.89,10.0,South,12.7,-,N/A,,Partly Cloudy,190,2013-05-20 22:53:00
6:53 PM,84.9,70.0,61,29.88,10.0,South,15.0,-,N/A,,Partly Cloudy,180,2013-05-20 23:53:00
7:53 PM,82.9,71.1,67,29.90,10.0,South,10.4,-,N/A,,Scattered Clouds,180,2013-05-21 00:53:00
8:53 PM,80.6,71.6,74,29.91,10.0,SSE,13.8,20.7,N/A,,Mostly Cloudy,160,2013-05-21 01:53:00
9:53 PM,79.0,72.0,79,29.93,10.0,SSE,16.1,20.7,N/A,,Scattered Clouds,150,2013-05-21 02:53:00
10:53 PM,79.0,73.0,82,29.94,10.0,SSE,13.8,19.6,N/A,,Clear,150,2013-05-21 03:53:00
11:53 PM,78.1,73.0,84,29.93,10.0,SE,11.5,-,N/A,,Mostly Cloudy,140,2013-05-21 04:53:00